Walker, Michigan
Current Conditions -  °F | °C
As of 1:53 PM on Friday 24 Oct 2014 (Local Time) from KGRR Reporting Station
Broken Clouds Broken Clouds  
Wind Chill: 60°   Ceiling: 3700
Heat Index: 60°   Visibility: 8mi
Dew Point: 50°   Wind: 12mph
Humidity: 69%   Direction: 240°WSW
Pressure: 30.01"   Gusts: NA
Location:  43.0133°N, 85.6986°W
Report Text: KGRR 241753Z 24010KT 8SM FEW020 BKN037 16/10 A3001 RMK AO2 SLP162 T01560100 10167 20100 58018
Loading
Personal Weather Stations






























Interactive Weather Map
Tropical Storm Tracking
New forecast layout! Learn more

10-Day Weather Forecast

Advertisements
Track Severe Weather on mobile